Skip Navigation Links Skip Navigation Links

Current Weather

Lee'S Summit Municipal, Lee'S Summit, Mo.

For information only: do not use for flight planning or navigation.
Latest weather
Observation time Monday, October 18, 2021 3:53 PM CDT
Local time Monday, October 18, 2021 4:07 PM CDT
Flight conditions Visual Meteorological Conditions
Winds
Wind direction South (190°)
Wind speed 16 mph
Wind gusting to 26 mph
Visibility 10 mi.
Sky condition
Ceiling unlimited
Temperature 72°F
Dewpoint 44°F
Altimeter 30.03 in.Hg
Pressure change last 3 hours0.07 in.Hg
Pressure falling more slowly
Derived measurements
Relative humidity 37%
Density altitude 1863 ft.
Sea-level pressure 30.02 in.Hg
Remarks
Fully automated report.
System requires maintenance.
Automated weather observing station with precipitation discriminator.
METAR KLXT 182053Z AUTO 19014G23KT 10SM 22/07 A3003 RMK AO2 SLP166 T02220067 56024 $

Settings

Location code

InnerDrive.Weather 4.0.6770.0 Release CLR 4.0.30319.42000
Copyright ©2018 Inner Drive Technology. All rights reserved. Portions Copyright ©1986-2018 David Braverman.

Find weather

Site navigation


Skip Navigation Links

Place info

Page info

PayPal - The safer, easier way to pay online!

Return home.

Copyright ©2021 Inner Drive Technology. Purveyors of fine, hand-crafted computer software. Page printed 2021-10-18T21:07:41 UTC.